Thunder radar more information blitzortung!


avis per Pluja more information rain snow radar


Visita la nostra xarxa de llocs de meteo:

Template documentation
and downloads

And another site



Rain From: 17-10-2018 23:00 Until: 18-10-2018 16:59 warning for: Rain Level: Yellow info button

Pagina Historial Weather Underground text

Diari Resum Octubre 1, 2017 Unitats:  Tant    Imperial   Mètric
« Previous Dia
SegĂźent Dia »
Diari Setmana Mensual Anual Personalitzada
  Maxima: Minima: Media:
Temperatura: TemperatureC °F /  -17.8 °C 16.3 °F /  -8.7 °C 18.5 °F /  -7.5 °C
Punt de rosada: DewpointC °F /  -17.8 °C 13.5 °F /  -10.3 °C 15.1 °F /  -9.4 °C
Humitat: Humidity % 74 % 81 %
Wind Speed: WindSpeedKMH mph /  0 km/h - 4.1 mph /  6.6 km/h
RĂ fegues de vent: WindSpeedGustKMH mph /  0 km/h - -
Vent:- - South
Pression baro: PressurehPa in /  0 hPa 1020.9 in /  34567.7 hPa -
Precipitacions: 0.0 in /  0 mm    
Historical Graphs
 
 
Dades de taula per Octubre 1, 2017
Temps Temperatura Punt de rosada Pression baro Vent Wind Speed RĂ fegues de vent Humitat Rainfall Rate (Hourly)
TemperatureC °F /  -17.8 °C DewpointC °F /  -17.8 °C PressurehPa in /  0 hPa Calm     Humidity % HourlyPrecipMM in /  0 mm
00:03 16.9 °F /  -8.4 °C 13.6 °F /  -10.2 °C 1021.9 in /  34601.5 hPa NNW 1.9 mph /  3.1 km/h 1.9 mph /  3.1 km/h 81 % 0.0 in /  0 mm
00:08 16.8 °F /  -8.4 °C 13.5 °F /  -10.3 °C 1021.9 in /  34601.5 hPa NE 3.7 mph /  6 km/h   81 % 0.0 in /  0 mm
00:13 16.8 °F /  -8.4 °C 13.5 °F /  -10.3 °C 1021.9 in /  34601.5 hPa NNE 1.9 mph /  3.1 km/h 1.9 mph /  3.1 km/h 81 % 0.0 in /  0 mm
00:18 16.8 °F /  -8.4 °C 13.5 °F /  -10.3 °C 1021.9 in /  34601.5 hPa ENE 1.9 mph /  3.1 km/h 1.9 mph /  3.1 km/h 81 % 0.0 in /  0 mm
00:23 16.7 °F /  -8.5 °C 13.6 °F /  -10.2 °C 1021.9 in /  34601.5 hPa ENE 3.7 mph /  6 km/h 3.7 mph /  6 km/h 82 % 0.0 in /  0 mm
00:24 16.7 °F /  -8.5 °C 13.6 °F /  -10.2 °C 1021.9 in /  34601.5 hPa NNW 3.7 mph /  6 km/h 3.7 mph /  6 km/h 82 % 0.0 in /  0 mm
00:29 16.7 °F /  -8.5 °C 13.6 °F /  -10.2 °C 1021.9 in /  34601.5 hPa WNW 1.9 mph /  3.1 km/h 1.9 mph /  3.1 km/h 82 % 0.0 in /  0 mm
03:40 16.5 °F /  -8.6 °C 14.2 °F /  -9.9 °C 1021.9 in /  34601.5 hPa Calm     86 % 0.0 in /  0 mm
03:50 16.6 °F /  -8.6 °C 14.2 °F /  -9.9 °C 1021.9 in /  34601.5 hPa NE 1.6 mph /  2.6 km/h 1.6 mph /  2.6 km/h 86 % 0.0 in /  0 mm
04:00 16.7 °F /  -8.5 °C 14.3 °F /  -9.8 °C 1021.9 in /  34601.5 hPa West 1.6 mph /  2.6 km/h 1.6 mph /  2.6 km/h 86 % 0.0 in /  0 mm
04:10 16.8 °F /  -8.4 °C 14.4 °F /  -9.8 °C 1021.9 in /  34601.5 hPa NNW 1.6 mph /  2.6 km/h 3.2 mph /  5.1 km/h 86 % 0.0 in /  0 mm
04:20 16.9 °F /  -8.4 °C 14.3 °F /  -9.8 °C 1021.9 in /  34601.5 hPa Calm   1.6 mph /  2.6 km/h 85 % 0.0 in /  0 mm
04:30 17.0 °F /  -8.3 °C 14.4 °F /  -9.8 °C 1021.9 in /  34601.5 hPa Calm   1.6 mph /  2.6 km/h 85 % 0.0 in /  0 mm
04:40 17.1 °F /  -8.3 °C 14.6 °F /  -9.7 °C 1021.9 in /  34601.5 hPa ENE 3.2 mph /  5.1 km/h 3.2 mph /  5.1 km/h 85 % 0.0 in /  0 mm
04:50 17.2 °F /  -8.2 °C 14.7 °F /  -9.6 °C 1021.9 in /  34601.5 hPa Calm   3.2 mph /  5.1 km/h 85 % 0.0 in /  0 mm
05:00 17.2 °F /  -8.2 °C 14.3 °F /  -9.8 °C 1020.9 in /  34567.7 hPa ENE 1.6 mph /  2.6 km/h 3.2 mph /  5.1 km/h 83 % 0.0 in /  0 mm
05:10 17.4 °F /  -8.1 °C 14.5 °F /  -9.7 °C 1021.9 in /  34601.5 hPa Calm   3.2 mph /  5.1 km/h 83 % 0.0 in /  0 mm
05:20 17.5 °F /  -8.1 °C 14.4 °F /  -9.8 °C 1021.9 in /  34601.5 hPa Calm   3.2 mph /  5.1 km/h 82 % 0.0 in /  0 mm
10:22 17.9 °F /  -7.8 °C 14.6 °F /  -9.7 °C 1022.9 in /  34635.4 hPa Calm     81 % 0.0 in /  0 mm
10:27 18.1 °F /  -7.7 °C 14.8 °F /  -9.6 °C 1022.9 in /  34635.4 hPa ENE 2.3 mph /  3.7 km/h 2.3 mph /  3.7 km/h 81 % 0.0 in /  0 mm
10:32 18.1 °F /  -7.7 °C 14.6 °F /  -9.7 °C 1021.9 in /  34601.5 hPa Calm     80 % 0.0 in /  0 mm
10:37 18.3 °F /  -7.6 °C 14.8 °F /  -9.6 °C 1021.9 in /  34601.5 hPa Calm     80 % 0.0 in /  0 mm
10:42 18.4 °F /  -7.6 °C 14.9 °F /  -9.5 °C 1021.9 in /  34601.5 hPa ENE 2.3 mph /  3.7 km/h   80 % 0.0 in /  0 mm
10:47 18.5 °F /  -7.5 °C 14.8 °F /  -9.6 °C 1021.9 in /  34601.5 hPa ESE 3.7 mph /  6 km/h 3.7 mph /  6 km/h 79 % 0.0 in /  0 mm
10:52 18.5 °F /  -7.5 °C 15.0 °F /  -9.4 °C 1021.9 in /  34601.5 hPa East 3.7 mph /  6 km/h 3.7 mph /  6 km/h 80 % 0.0 in /  0 mm
10:57 18.6 °F /  -7.4 °C 14.9 °F /  -9.5 °C 1021.9 in /  34601.5 hPa ENE 3.7 mph /  6 km/h 3.7 mph /  6 km/h 79 % 0.0 in /  0 mm
11:02 18.7 °F /  -7.4 °C 15.2 °F /  -9.3 °C 1021.9 in /  34601.5 hPa East 5.0 mph /  8 km/h 5.0 mph /  8 km/h 80 % 0.0 in /  0 mm
11:07 18.7 °F /  -7.4 °C 15.2 °F /  -9.3 °C 1021.9 in /  34601.5 hPa SE 3.7 mph /  6 km/h 3.7 mph /  6 km/h 80 % 0.0 in /  0 mm
11:12 18.7 °F /  -7.4 °C 15.2 °F /  -9.3 °C 1021.9 in /  34601.5 hPa ENE 5.6 mph /  9 km/h 5.6 mph /  9 km/h 80 % 0.0 in /  0 mm
11:17 18.7 °F /  -7.4 °C 15.2 °F /  -9.3 °C 1021.9 in /  34601.5 hPa East 3.7 mph /  6 km/h 3.7 mph /  6 km/h 80 % 0.0 in /  0 mm
11:22 18.8 °F /  -7.3 °C 15.3 °F /  -9.3 °C 1021.9 in /  34601.5 hPa ESE 5.0 mph /  8 km/h 5.0 mph /  8 km/h 80 % 0.0 in /  0 mm
11:27 18.7 °F /  -7.4 °C 15.2 °F /  -9.3 °C 1021.9 in /  34601.5 hPa ESE 6.4 mph /  10.3 km/h 6.4 mph /  10.3 km/h 80 % 0.0 in /  0 mm
11:32 18.7 °F /  -7.4 °C 15.2 °F /  -9.3 °C 1021.9 in /  34601.5 hPa ENE 3.9 mph /  6.3 km/h 3.9 mph /  6.3 km/h 80 % 0.0 in /  0 mm
11:37 18.9 °F /  -7.3 °C 15.6 °F /  -9.1 °C 1021.9 in /  34601.5 hPa ENE 7.4 mph /  11.9 km/h 7.4 mph /  11.9 km/h 81 % 0.0 in /  0 mm
11:42 19.0 °F /  -7.2 °C 15.4 °F /  -9.2 °C 1021.9 in /  34601.5 hPa NNE 4.7 mph /  7.6 km/h 4.7 mph /  7.6 km/h 80 % 0.0 in /  0 mm
11:47 19.0 °F /  -7.2 °C 15.4 °F /  -9.2 °C 1022.9 in /  34635.4 hPa ENE 5.8 mph /  9.3 km/h 5.8 mph /  9.3 km/h 80 % 0.0 in /  0 mm
11:52 18.9 °F /  -7.3 °C 15.6 °F /  -9.1 °C 1022.9 in /  34635.4 hPa ESE 7.4 mph /  11.9 km/h 7.4 mph /  11.9 km/h 81 % 0.0 in /  0 mm
11:53 19.0 °F /  -7.2 °C 15.4 °F /  -9.2 °C 1022.9 in /  34635.4 hPa ESE 7.9 mph /  12.7 km/h 7.9 mph /  12.7 km/h 80 % 0.0 in /  0 mm
11:58 19.1 °F /  -7.2 °C 15.6 °F /  -9.1 °C 1022.9 in /  34635.4 hPa NNE 7.4 mph /  11.9 km/h 7.4 mph /  11.9 km/h 80 % 0.0 in /  0 mm
12:03 19.0 °F /  -7.2 °C 15.4 °F /  -9.2 °C 1022.9 in /  34635.4 hPa ENE 7.4 mph /  11.9 km/h 7.4 mph /  11.9 km/h 80 % 0.0 in /  0 mm
12:08 18.9 °F /  -7.3 °C 15.8 °F /  -9 °C 1022.9 in /  34635.4 hPa ENE 7.4 mph /  11.9 km/h 7.4 mph /  11.9 km/h 82 % 0.0 in /  0 mm
12:13 19.0 °F /  -7.2 °C 15.7 °F /  -9.1 °C 1022.9 in /  34635.4 hPa ESE 10.0 mph /  16.1 km/h 10.0 mph /  16.1 km/h 81 % 0.0 in /  0 mm
12:18 19.1 °F /  -7.2 °C 15.9 °F /  -8.9 °C 1022.9 in /  34635.4 hPa ENE 6.1 mph /  9.8 km/h 6.1 mph /  9.8 km/h 82 % 0.0 in /  0 mm
12:23 19.1 °F /  -7.2 °C 15.8 °F /  -9 °C 1022.9 in /  34635.4 hPa ESE 6.1 mph /  9.8 km/h 6.1 mph /  9.8 km/h 81 % 0.0 in /  0 mm
12:28 19.0 °F /  -7.2 °C 15.7 °F /  -9.1 °C 1022.9 in /  34635.4 hPa ENE 11.1 mph /  17.9 km/h 11.1 mph /  17.9 km/h 81 % 0.0 in /  0 mm
12:33 18.8 °F /  -7.3 °C 15.7 °F /  -9.1 °C 1022.9 in /  34635.4 hPa East 9.3 mph /  15 km/h 9.3 mph /  15 km/h 82 % 0.0 in /  0 mm
12:38 18.9 °F /  -7.3 °C 15.8 °F /  -9 °C 1022.9 in /  34635.4 hPa SE 13.0 mph /  20.9 km/h 13.0 mph /  20.9 km/h 82 % 0.0 in /  0 mm
12:43 19.0 °F /  -7.2 °C 15.7 °F /  -9.1 °C 1022.9 in /  34635.4 hPa ESE 6.1 mph /  9.8 km/h 6.1 mph /  9.8 km/h 81 % 0.0 in /  0 mm
12:48 19.1 °F /  -7.2 °C 15.6 °F /  -9.1 °C 1021.9 in /  34601.5 hPa ESE 11.1 mph /  17.9 km/h 11.1 mph /  17.9 km/h 80 % 0.0 in /  0 mm
12:53 19.2 °F /  -7.1 °C 15.7 °F /  -9.1 °C 1021.9 in /  34601.5 hPa ESE 6.9 mph /  11.1 km/h 6.9 mph /  11.1 km/h 80 % 0.0 in /  0 mm
12:58 19.4 °F /  -7 °C 15.8 °F /  -9 °C 1021.9 in /  34601.5 hPa South 7.4 mph /  11.9 km/h 7.4 mph /  11.9 km/h 80 % 0.0 in /  0 mm
13:03 19.8 °F /  -6.8 °C 16.1 °F /  -8.8 °C 1021.9 in /  34601.5 hPa South 3.7 mph /  6 km/h 3.7 mph /  6 km/h 79 % 0.0 in /  0 mm
13:08 20.2 °F /  -6.6 °C 16.2 °F /  -8.8 °C 1021.9 in /  34601.5 hPa East 5.6 mph /  9 km/h 5.6 mph /  9 km/h 78 % 0.0 in /  0 mm
13:13 19.9 °F /  -6.7 °C 15.9 °F /  -8.9 °C 1021.9 in /  34601.5 hPa SE 7.4 mph /  11.9 km/h 7.4 mph /  11.9 km/h 78 % 0.0 in /  0 mm
13:18 20.0 °F /  -6.7 °C 16.1 °F /  -8.8 °C 1021.9 in /  34601.5 hPa East 7.9 mph /  12.7 km/h 7.9 mph /  12.7 km/h 78 % 0.0 in /  0 mm
13:23 19.9 °F /  -6.7 °C 15.9 °F /  -8.9 °C 1021.9 in /  34601.5 hPa SSE 9.3 mph /  15 km/h 9.3 mph /  15 km/h 78 % 0.0 in /  0 mm
13:28 20.0 °F /  -6.7 °C 16.1 °F /  -8.8 °C 1021.9 in /  34601.5 hPa ENE 9.3 mph /  15 km/h 9.3 mph /  15 km/h 78 % 0.0 in /  0 mm
13:33 20.0 °F /  -6.7 °C 15.8 °F /  -9 °C 1021.9 in /  34601.5 hPa ESE 12.2 mph /  19.6 km/h 12.2 mph /  19.6 km/h 77 % 0.0 in /  0 mm
13:38 20.2 °F /  -6.6 °C 16.1 °F /  -8.8 °C 1021.9 in /  34601.5 hPa ESE 9.3 mph /  15 km/h 9.3 mph /  15 km/h 77 % 0.0 in /  0 mm
13:43 20.1 °F /  -6.6 °C 15.9 °F /  -8.9 °C 1021.9 in /  34601.5 hPa East 13.0 mph /  20.9 km/h 13.0 mph /  20.9 km/h 77 % 0.0 in /  0 mm
13:48 20.0 °F /  -6.7 °C 15.8 °F /  -9 °C 1021.9 in /  34601.5 hPa ESE 9.5 mph /  15.3 km/h 9.5 mph /  15.3 km/h 77 % 0.0 in /  0 mm
13:53 20.0 °F /  -6.7 °C 15.8 °F /  -9 °C 1021.9 in /  34601.5 hPa SSE 11.1 mph /  17.9 km/h 11.1 mph /  17.9 km/h 77 % 0.0 in /  0 mm
13:58 20.2 °F /  -6.6 °C 16.1 °F /  -8.8 °C 1021.9 in /  34601.5 hPa ESE 3.7 mph /  6 km/h 3.7 mph /  6 km/h 77 % 0.0 in /  0 mm
14:03 20.4 °F /  -6.4 °C 16.0 °F /  -8.9 °C 1021.9 in /  34601.5 hPa SE 5.8 mph /  9.3 km/h 5.8 mph /  9.3 km/h 76 % 0.0 in /  0 mm
14:08 20.1 °F /  -6.6 °C 15.7 °F /  -9.1 °C 1021.9 in /  34601.5 hPa ESE 3.9 mph /  6.3 km/h 3.9 mph /  6.3 km/h 76 % 0.0 in /  0 mm
14:13 20.1 °F /  -6.6 °C 15.7 °F /  -9.1 °C 1021.9 in /  34601.5 hPa ESE 3.9 mph /  6.3 km/h 3.9 mph /  6.3 km/h 76 % 0.0 in /  0 mm
14:18 20.0 °F /  -6.7 °C 15.7 °F /  -9.1 °C 1021.9 in /  34601.5 hPa South 5.6 mph /  9 km/h 5.6 mph /  9 km/h 76 % 0.0 in /  0 mm
14:23 20.2 °F /  -6.6 °C 16.1 °F /  -8.8 °C 1021.9 in /  34601.5 hPa WSW 4.7 mph /  7.6 km/h 4.7 mph /  7.6 km/h 77 % 0.0 in /  0 mm
14:28 20.1 °F /  -6.6 °C 16.2 °F /  -8.8 °C 1021.9 in /  34601.5 hPa SW 4.2 mph /  6.8 km/h 4.2 mph /  6.8 km/h 78 % 0.0 in /  0 mm
14:33 20.1 °F /  -6.6 °C 16.2 °F /  -8.8 °C 1021.9 in /  34601.5 hPa WSW 3.7 mph /  6 km/h 3.7 mph /  6 km/h 78 % 0.0 in /  0 mm
14:38 20.2 °F /  -6.6 °C 16.2 °F /  -8.8 °C 1021.9 in /  34601.5 hPa SW 5.6 mph /  9 km/h 5.6 mph /  9 km/h 78 % 0.0 in /  0 mm
14:43 20.2 °F /  -6.6 °C 16.2 °F /  -8.8 °C 1021.9 in /  34601.5 hPa SW 4.7 mph /  7.6 km/h 4.7 mph /  7.6 km/h 78 % 0.0 in /  0 mm
14:48 20.2 °F /  -6.6 °C 16.1 °F /  -8.8 °C 1021.9 in /  34601.5 hPa East 3.7 mph /  6 km/h 3.7 mph /  6 km/h 77 % 0.0 in /  0 mm
14:53 20.2 °F /  -6.6 °C 16.1 °F /  -8.8 °C 1021.9 in /  34601.5 hPa ENE 5.3 mph /  8.5 km/h 5.3 mph /  8.5 km/h 77 % 0.0 in /  0 mm
14:58 20.0 °F /  -6.7 °C 15.8 °F /  -9 °C 1021.9 in /  34601.5 hPa ENE 7.4 mph /  11.9 km/h 7.4 mph /  11.9 km/h 77 % 0.0 in /  0 mm
15:03 19.8 °F /  -6.8 °C 15.8 °F /  -9 °C 1022.9 in /  34635.4 hPa East 7.4 mph /  11.9 km/h 7.4 mph /  11.9 km/h 78 % 0.0 in /  0 mm
15:08 19.7 °F /  -6.8 °C 15.6 °F /  -9.1 °C 1022.9 in /  34635.4 hPa ESE 9.3 mph /  15 km/h 9.3 mph /  15 km/h 77 % 0.0 in /  0 mm
15:13 19.7 °F /  -6.8 °C 15.6 °F /  -9.1 °C 1022.9 in /  34635.4 hPa ESE 11.4 mph /  18.3 km/h 11.4 mph /  18.3 km/h 77 % 0.0 in /  0 mm
15:18 19.7 °F /  -6.8 °C 15.6 °F /  -9.1 °C 1021.9 in /  34601.5 hPa East 9.3 mph /  15 km/h 9.3 mph /  15 km/h 77 % 0.0 in /  0 mm
15:23 19.8 °F /  -6.8 °C 15.7 °F /  -9.1 °C 1021.9 in /  34601.5 hPa ESE 11.1 mph /  17.9 km/h 11.1 mph /  17.9 km/h 77 % 0.0 in /  0 mm
15:33 19.9 °F /  -6.7 °C 15.7 °F /  -9.1 °C 1021.9 in /  34601.5 hPa NE 4.7 mph /  7.6 km/h 4.7 mph /  7.6 km/h 77 % 0.0 in /  0 mm
15:34 19.9 °F /  -6.7 °C 15.7 °F /  -9.1 °C 1021.9 in /  34601.5 hPa ESE 5.6 mph /  9 km/h 5.6 mph /  9 km/h 77 % 0.0 in /  0 mm
15:39 19.9 °F /  -6.7 °C 15.7 °F /  -9.1 °C 1021.9 in /  34601.5 hPa East 9.3 mph /  15 km/h 9.3 mph /  15 km/h 77 % 0.0 in /  0 mm
15:44 19.8 °F /  -6.8 °C 15.4 °F /  -9.2 °C 1021.9 in /  34601.5 hPa ESE 9.3 mph /  15 km/h 9.3 mph /  15 km/h 76 % 0.0 in /  0 mm
15:49 19.8 °F /  -6.8 °C 15.4 °F /  -9.2 °C 1021.9 in /  34601.5 hPa ENE 7.4 mph /  11.9 km/h 7.4 mph /  11.9 km/h 76 % 0.0 in /  0 mm
15:54 19.8 °F /  -6.8 °C 15.4 °F /  -9.2 °C 1021.9 in /  34601.5 hPa ESE 9.3 mph /  15 km/h 9.3 mph /  15 km/h 76 % 0.0 in /  0 mm
15:59 19.8 °F /  -6.8 °C 15.4 °F /  -9.2 °C 1021.9 in /  34601.5 hPa East 5.6 mph /  9 km/h 5.6 mph /  9 km/h 76 % 0.0 in /  0 mm
16:04 19.9 °F /  -6.7 °C 15.6 °F /  -9.1 °C 1021.9 in /  34601.5 hPa SSE 7.4 mph /  11.9 km/h 7.4 mph /  11.9 km/h 76 % 0.0 in /  0 mm
16:09 19.9 °F /  -6.7 °C 15.6 °F /  -9.1 °C 1021.9 in /  34601.5 hPa ESE 7.4 mph /  11.9 km/h 7.4 mph /  11.9 km/h 76 % 0.0 in /  0 mm
16:14 19.9 °F /  -6.7 °C 15.6 °F /  -9.1 °C 1021.9 in /  34601.5 hPa SSE 3.7 mph /  6 km/h 3.7 mph /  6 km/h 76 % 0.0 in /  0 mm
16:19 20.0 °F /  -6.7 °C 15.7 °F /  -9.1 °C 1021.9 in /  34601.5 hPa ESE 1.9 mph /  3.1 km/h   76 % 0.0 in /  0 mm
16:20 20.1 °F /  -6.6 °C 15.7 °F /  -9.1 °C 1021.9 in /  34601.5 hPa WSW 1.9 mph /  3.1 km/h   76 % 0.0 in /  0 mm
16:25 20.2 °F /  -6.6 °C 15.6 °F /  -9.1 °C 1021.9 in /  34601.5 hPa South 7.6 mph /  12.2 km/h 7.6 mph /  12.2 km/h 75 % 0.0 in /  0 mm
16:30 20.2 °F /  -6.6 °C 15.6 °F /  -9.1 °C 1021.9 in /  34601.5 hPa WSW 5.6 mph /  9 km/h 5.6 mph /  9 km/h 75 % 0.0 in /  0 mm
16:35 20.5 °F /  -6.4 °C 15.9 °F /  -8.9 °C 1021.9 in /  34601.5 hPa SW 1.9 mph /  3.1 km/h   75 % 0.0 in /  0 mm
16:40 20.7 °F /  -6.3 °C 16.1 °F /  -8.8 °C 1021.9 in /  34601.5 hPa SE 3.7 mph /  6 km/h 3.7 mph /  6 km/h 75 % 0.0 in /  0 mm
16:45 20.7 °F /  -6.3 °C 16.1 °F /  -8.8 °C 1021.9 in /  34601.5 hPa SW 3.9 mph /  6.3 km/h 3.9 mph /  6.3 km/h 75 % 0.0 in /  0 mm
16:50 20.6 °F /  -6.3 °C 15.8 °F /  -9 °C 1021.9 in /  34601.5 hPa SSE 4.7 mph /  7.6 km/h 4.7 mph /  7.6 km/h 74 % 0.0 in /  0 mm
16:55 20.5 °F /  -6.4 °C 15.7 °F /  -9.1 °C 1021.9 in /  34601.5 hPa SSE 7.4 mph /  11.9 km/h 7.4 mph /  11.9 km/h 74 % 0.0 in /  0 mm
17:00 20.4 °F /  -6.4 °C 15.6 °F /  -9.1 °C 1021.9 in /  34601.5 hPa WSW 4.7 mph /  7.6 km/h 4.7 mph /  7.6 km/h 74 % 0.0 in /  0 mm
17:05 20.4 °F /  -6.4 °C 15.6 °F /  -9.1 °C 1021.9 in /  34601.5 hPa SW 3.7 mph /  6 km/h   74 % 0.0 in /  0 mm
17:10 20.4 °F /  -6.4 °C 15.6 °F /  -9.1 °C 1021.9 in /  34601.5 hPa SW 5.6 mph /  9 km/h 5.6 mph /  9 km/h 74 % 0.0 in /  0 mm
17:15 20.4 °F /  -6.4 °C 15.6 °F /  -9.1 °C 1021.9 in /  34601.5 hPa South 5.0 mph /  8 km/h 5.0 mph /  8 km/h 74 % 0.0 in /  0 mm
17:20 20.4 °F /  -6.4 °C 15.6 °F /  -9.1 °C 1021.9 in /  34601.5 hPa ESE 5.6 mph /  9 km/h 5.6 mph /  9 km/h 74 % 0.0 in /  0 mm
17:25 20.3 °F /  -6.5 °C 15.5 °F /  -9.2 °C 1021.9 in /  34601.5 hPa South 2.6 mph /  4.2 km/h 2.6 mph /  4.2 km/h 74 % 0.0 in /  0 mm
17:30 20.3 °F /  -6.5 °C 15.5 °F /  -9.2 °C 1021.9 in /  34601.5 hPa SSE 5.6 mph /  9 km/h   74 % 0.0 in /  0 mm
17:35 20.4 °F /  -6.4 °C 15.6 °F /  -9.1 °C 1021.9 in /  34601.5 hPa SW 5.0 mph /  8 km/h 5.0 mph /  8 km/h 74 % 0.0 in /  0 mm
17:40 20.2 °F /  -6.6 °C 15.4 °F /  -9.2 °C 1021.9 in /  34601.5 hPa WSW 5.6 mph /  9 km/h 5.6 mph /  9 km/h 74 % 0.0 in /  0 mm
17:45 20.2 °F /  -6.6 °C 15.4 °F /  -9.2 °C 1021.9 in /  34601.5 hPa SSW 5.6 mph /  9 km/h   74 % 0.0 in /  0 mm
17:50 20.1 °F /  -6.6 °C 15.3 °F /  -9.3 °C 1021.9 in /  34601.5 hPa SW 7.4 mph /  11.9 km/h 7.4 mph /  11.9 km/h 74 % 0.0 in /  0 mm
17:55 20.0 °F /  -6.7 °C 15.2 °F /  -9.3 °C 1021.9 in /  34601.5 hPa SW 5.3 mph /  8.5 km/h 5.3 mph /  8.5 km/h 74 % 0.0 in /  0 mm
18:00 20.0 °F /  -6.7 °C 15.2 °F /  -9.3 °C 1021.9 in /  34601.5 hPa SW 7.4 mph /  11.9 km/h 7.4 mph /  11.9 km/h 74 % 0.0 in /  0 mm
18:05 20.0 °F /  -6.7 °C 15.4 °F /  -9.2 °C 1021.9 in /  34601.5 hPa SSW 5.0 mph /  8 km/h 5.0 mph /  8 km/h 75 % 0.0 in /  0 mm
18:10 19.9 °F /  -6.7 °C 15.3 °F /  -9.3 °C 1021.9 in /  34601.5 hPa SW 5.6 mph /  9 km/h 5.6 mph /  9 km/h 75 % 0.0 in /  0 mm
18:15 19.9 °F /  -6.7 °C 15.6 °F /  -9.1 °C 1021.9 in /  34601.5 hPa West 5.6 mph /  9 km/h 5.6 mph /  9 km/h 76 % 0.0 in /  0 mm
18:20 19.9 °F /  -6.7 °C 15.6 °F /  -9.1 °C 1021.9 in /  34601.5 hPa WSW 3.7 mph /  6 km/h 3.7 mph /  6 km/h 76 % 0.0 in /  0 mm
18:25 19.8 °F /  -6.8 °C 15.4 °F /  -9.2 °C 1021.9 in /  34601.5 hPa WSW 3.7 mph /  6 km/h 3.7 mph /  6 km/h 76 % 0.0 in /  0 mm
18:30 19.8 °F /  -6.8 °C 15.4 °F /  -9.2 °C 1021.9 in /  34601.5 hPa SSW 3.7 mph /  6 km/h 3.7 mph /  6 km/h 76 % 0.0 in /  0 mm
18:35 19.7 °F /  -6.8 °C 15.3 °F /  -9.3 °C 1021.9 in /  34601.5 hPa SSW 7.4 mph /  11.9 km/h 7.4 mph /  11.9 km/h 76 % 0.0 in /  0 mm
18:40 19.6 °F /  -6.9 °C 15.3 °F /  -9.3 °C 1021.9 in /  34601.5 hPa SW 5.8 mph /  9.3 km/h 5.8 mph /  9.3 km/h 76 % 0.0 in /  0 mm
18:50 19.4 °F /  -7 °C 15.3 °F /  -9.3 °C 1021.9 in /  34601.5 hPa WNW 5.6 mph /  9 km/h 5.6 mph /  9 km/h 77 % 0.0 in /  0 mm
18:55 19.3 °F /  -7.1 °C 15.2 °F /  -9.3 °C 1021.9 in /  34601.5 hPa SW 5.6 mph /  9 km/h 5.6 mph /  9 km/h 77 % 0.0 in /  0 mm
19:00 19.2 °F /  -7.1 °C 15.1 °F /  -9.4 °C 1021.9 in /  34601.5 hPa SW 6.4 mph /  10.3 km/h 6.4 mph /  10.3 km/h 77 % 0.0 in /  0 mm
19:05 19.2 °F /  -7.1 °C 15.1 °F /  -9.4 °C 1021.9 in /  34601.5 hPa SW 5.6 mph /  9 km/h 5.6 mph /  9 km/h 77 % 0.0 in /  0 mm
19:10 19.1 °F /  -7.2 °C 14.9 °F /  -9.5 °C 1021.9 in /  34601.5 hPa SW 3.9 mph /  6.3 km/h 3.9 mph /  6.3 km/h 77 % 0.0 in /  0 mm
19:15 19.1 °F /  -7.2 °C 15.2 °F /  -9.3 °C 1021.9 in /  34601.5 hPa SW 5.6 mph /  9 km/h 5.6 mph /  9 km/h 78 % 0.0 in /  0 mm
19:20 19.0 °F /  -7.2 °C 15.1 °F /  -9.4 °C 1021.9 in /  34601.5 hPa West 7.4 mph /  11.9 km/h 7.4 mph /  11.9 km/h 78 % 0.0 in /  0 mm
19:25 19.0 °F /  -7.2 °C 15.1 °F /  -9.4 °C 1021.9 in /  34601.5 hPa WSW 5.8 mph /  9.3 km/h 5.8 mph /  9.3 km/h 78 % 0.0 in /  0 mm
19:30 18.9 °F /  -7.3 °C 15.2 °F /  -9.3 °C 1021.9 in /  34601.5 hPa SW 7.4 mph /  11.9 km/h 7.4 mph /  11.9 km/h 79 % 0.0 in /  0 mm
19:35 18.9 °F /  -7.3 °C 15.2 °F /  -9.3 °C 1021.9 in /  34601.5 hPa SW 3.9 mph /  6.3 km/h 3.9 mph /  6.3 km/h 79 % 0.0 in /  0 mm
19:40 18.8 °F /  -7.3 °C 15.1 °F /  -9.4 °C 1021.9 in /  34601.5 hPa WSW 7.6 mph /  12.2 km/h 7.6 mph /  12.2 km/h 79 % 0.0 in /  0 mm
19:45 18.8 °F /  -7.3 °C 15.1 °F /  -9.4 °C 1021.9 in /  34601.5 hPa SW 3.7 mph /  6 km/h 3.7 mph /  6 km/h 79 % 0.0 in /  0 mm
19:50 18.7 °F /  -7.4 °C 15.0 °F /  -9.4 °C 1021.9 in /  34601.5 hPa SW 3.5 mph /  5.6 km/h 3.5 mph /  5.6 km/h 79 % 0.0 in /  0 mm
19:55 18.7 °F /  -7.4 °C 15.2 °F /  -9.3 °C 1021.9 in /  34601.5 hPa WSW 2.6 mph /  4.2 km/h 2.6 mph /  4.2 km/h 80 % 0.0 in /  0 mm
20:00 18.6 °F /  -7.4 °C 15.1 °F /  -9.4 °C 1021.9 in /  34601.5 hPa WSW 2.6 mph /  4.2 km/h   80 % 0.0 in /  0 mm
20:05 18.5 °F /  -7.5 °C 15.0 °F /  -9.4 °C 1021.9 in /  34601.5 hPa SSW 3.7 mph /  6 km/h   80 % 0.0 in /  0 mm
20:10 18.5 °F /  -7.5 °C 15.0 °F /  -9.4 °C 1021.9 in /  34601.5 hPa SSW 3.7 mph /  6 km/h 3.7 mph /  6 km/h 80 % 0.0 in /  0 mm
20:15 18.4 °F /  -7.6 °C 14.9 °F /  -9.5 °C 1021.9 in /  34601.5 hPa SW 3.7 mph /  6 km/h 3.7 mph /  6 km/h 80 % 0.0 in /  0 mm
20:16 18.4 °F /  -7.6 °C 14.9 °F /  -9.5 °C 1021.9 in /  34601.5 hPa SW 3.7 mph /  6 km/h 3.7 mph /  6 km/h 80 % 0.0 in /  0 mm
20:20 17.0 °F /  -8.3 °C 15.2 °F /  -9.3 °C 1023.9 in /  34669.3 hPa Calm     89 % 0.0 in /  0 mm
20:21 18.3 °F /  -7.6 °C 15.0 °F /  -9.4 °C 1021.9 in /  34601.5 hPa SSW 3.7 mph /  6 km/h 3.7 mph /  6 km/h 81 % 0.0 in /  0 mm
20:26 18.3 °F /  -7.6 °C 15.0 °F /  -9.4 °C 1021.9 in /  34601.5 hPa SW 3.7 mph /  6 km/h 3.7 mph /  6 km/h 81 % 0.0 in /  0 mm
20:30 16.9 °F /  -8.4 °C 15.1 °F /  -9.4 °C 1023.9 in /  34669.3 hPa Calm     89 % 0.0 in /  0 mm
20:31 18.2 °F /  -7.7 °C 14.9 °F /  -9.5 °C 1021.9 in /  34601.5 hPa West 1.9 mph /  3.1 km/h 1.9 mph /  3.1 km/h 81 % 0.0 in /  0 mm
20:36 18.2 °F /  -7.7 °C 14.9 °F /  -9.5 °C 1021.9 in /  34601.5 hPa SW 3.7 mph /  6 km/h 3.7 mph /  6 km/h 81 % 0.0 in /  0 mm
20:40 16.9 °F /  -8.4 °C 15.1 °F /  -9.4 °C 1023.9 in /  34669.3 hPa Calm     89 % 0.0 in /  0 mm
20:41 18.1 °F /  -7.7 °C 14.8 °F /  -9.6 °C 1021.9 in /  34601.5 hPa West 3.7 mph /  6 km/h 3.7 mph /  6 km/h 81 % 0.0 in /  0 mm
20:46 18.1 °F /  -7.7 °C 15.0 °F /  -9.4 °C 1021.9 in /  34601.5 hPa SW 3.7 mph /  6 km/h 3.7 mph /  6 km/h 82 % 0.0 in /  0 mm
20:50 16.9 °F /  -8.4 °C 15.1 °F /  -9.4 °C 1023.9 in /  34669.3 hPa Calm     89 % 0.0 in /  0 mm
20:51 18.0 °F /  -7.8 °C 14.9 °F /  -9.5 °C 1021.9 in /  34601.5 hPa West 3.7 mph /  6 km/h 3.7 mph /  6 km/h 82 % 0.0 in /  0 mm
20:56 17.9 °F /  -7.8 °C 14.8 °F /  -9.6 °C 1021.9 in /  34601.5 hPa SW 3.7 mph /  6 km/h 3.7 mph /  6 km/h 82 % 0.0 in /  0 mm
21:00 16.9 °F /  -8.4 °C 15.2 °F /  -9.3 °C 1023.9 in /  34669.3 hPa Calm     90 % 0.0 in /  0 mm
21:01 17.8 °F /  -7.9 °C 14.9 °F /  -9.5 °C 1022.9 in /  34635.4 hPa SW 1.9 mph /  3.1 km/h 1.9 mph /  3.1 km/h 83 % 0.0 in /  0 mm
21:06 17.7 °F /  -7.9 °C 14.8 °F /  -9.6 °C 1022.9 in /  34635.4 hPa WSW 2.3 mph /  3.7 km/h 2.3 mph /  3.7 km/h 83 % 0.0 in /  0 mm
21:10 16.9 °F /  -8.4 °C 15.2 °F /  -9.3 °C 1022.9 in /  34635.4 hPa Calm     90 % 0.0 in /  0 mm
21:11 17.6 °F /  -8 °C 14.7 °F /  -9.6 °C 1022.9 in /  34635.4 hPa SW 3.7 mph /  6 km/h 3.7 mph /  6 km/h 83 % 0.0 in /  0 mm
21:16 17.6 °F /  -8 °C 14.7 °F /  -9.6 °C 1022.9 in /  34635.4 hPa WSW 1.9 mph /  3.1 km/h 1.9 mph /  3.1 km/h 83 % 0.0 in /  0 mm
21:20 16.8 °F /  -8.4 °C 15.2 °F /  -9.3 °C 1022.9 in /  34635.4 hPa Calm     90 % 0.0 in /  0 mm
21:21 17.5 °F /  -8.1 °C 14.6 °F /  -9.7 °C 1022.9 in /  34635.4 hPa WSW 3.7 mph /  6 km/h 3.7 mph /  6 km/h 83 % 0.0 in /  0 mm
21:26 17.5 °F /  -8.1 °C 14.8 °F /  -9.6 °C 1022.9 in /  34635.4 hPa WSW 3.7 mph /  6 km/h 3.7 mph /  6 km/h 84 % 0.0 in /  0 mm
21:30 16.8 °F /  -8.4 °C 15.2 °F /  -9.3 °C 1023.9 in /  34669.3 hPa Calm     90 % 0.0 in /  0 mm
21:31 17.5 °F /  -8.1 °C 14.8 °F /  -9.6 °C 1022.9 in /  34635.4 hPa WSW 3.9 mph /  6.3 km/h 3.9 mph /  6.3 km/h 84 % 0.0 in /  0 mm
21:36 17.5 °F /  -8.1 °C 14.8 °F /  -9.6 °C 1022.9 in /  34635.4 hPa WSW 3.7 mph /  6 km/h 3.7 mph /  6 km/h 84 % 0.0 in /  0 mm
21:40 16.8 °F /  -8.4 °C 15.2 °F /  -9.3 °C 1022.9 in /  34635.4 hPa Calm     90 % 0.0 in /  0 mm
21:41 17.5 °F /  -8.1 °C 14.8 °F /  -9.6 °C 1022.9 in /  34635.4 hPa West 3.7 mph /  6 km/h 3.7 mph /  6 km/h 84 % 0.0 in /  0 mm
21:46 17.5 °F /  -8.1 °C 14.8 °F /  -9.6 °C 1022.9 in /  34635.4 hPa WSW 3.2 mph /  5.1 km/h 3.2 mph /  5.1 km/h 84 % 0.0 in /  0 mm
21:50 16.7 °F /  -8.5 °C 15.1 °F /  -9.4 °C 1022.9 in /  34635.4 hPa Calm     90 % 0.0 in /  0 mm
21:51 17.5 °F /  -8.1 °C 14.8 °F /  -9.6 °C 1022.9 in /  34635.4 hPa WSW 3.7 mph /  6 km/h 3.7 mph /  6 km/h 84 % 0.0 in /  0 mm
21:56 17.4 °F /  -8.1 °C 14.7 °F /  -9.6 °C 1022.9 in /  34635.4 hPa WSW 4.2 mph /  6.8 km/h 4.2 mph /  6.8 km/h 84 % 0.0 in /  0 mm
22:00 16.7 °F /  -8.5 °C 15.1 °F /  -9.4 °C 1022.9 in /  34635.4 hPa Calm     90 % 0.0 in /  0 mm
22:01 17.4 °F /  -8.1 °C 14.7 °F /  -9.6 °C 1022.9 in /  34635.4 hPa WSW 3.7 mph /  6 km/h 3.7 mph /  6 km/h 84 % 0.0 in /  0 mm
22:06 17.4 °F /  -8.1 °C 14.8 °F /  -9.6 °C 1022.9 in /  34635.4 hPa West 3.7 mph /  6 km/h 3.7 mph /  6 km/h 85 % 0.0 in /  0 mm
22:10 16.6 °F /  -8.6 °C 14.9 °F /  -9.5 °C 1022.9 in /  34635.4 hPa Calm     90 % 0.0 in /  0 mm
22:11 17.3 °F /  -8.2 °C 14.8 °F /  -9.6 °C 1022.9 in /  34635.4 hPa West 3.5 mph /  5.6 km/h 3.5 mph /  5.6 km/h 85 % 0.0 in /  0 mm
22:16 17.3 °F /  -8.2 °C 14.8 °F /  -9.6 °C 1022.9 in /  34635.4 hPa West 3.7 mph /  6 km/h 3.7 mph /  6 km/h 85 % 0.0 in /  0 mm
22:20 16.7 °F /  -8.5 °C 15.2 °F /  -9.3 °C 1022.9 in /  34635.4 hPa Calm     91 % 0.0 in /  0 mm
22:21 17.3 °F /  -8.2 °C 14.8 °F /  -9.6 °C 1022.9 in /  34635.4 hPa WSW 3.7 mph /  6 km/h 3.7 mph /  6 km/h 85 % 0.0 in /  0 mm
22:26 17.3 °F /  -8.2 °C 14.8 °F /  -9.6 °C 1022.9 in /  34635.4 hPa WSW 2.6 mph /  4.2 km/h 2.6 mph /  4.2 km/h 85 % 0.0 in /  0 mm
22:30 16.7 °F /  -8.5 °C 15.2 °F /  -9.3 °C 1022.9 in /  34635.4 hPa Calm     91 % 0.0 in /  0 mm
22:31 17.3 °F /  -8.2 °C 14.8 °F /  -9.6 °C 1022.9 in /  34635.4 hPa WSW 3.7 mph /  6 km/h 3.7 mph /  6 km/h 85 % 0.0 in /  0 mm
22:36 17.2 °F /  -8.2 °C 14.8 °F /  -9.6 °C 1022.9 in /  34635.4 hPa SW 1.9 mph /  3.1 km/h   86 % 0.0 in /  0 mm
22:40 16.8 °F /  -8.4 °C 15.3 °F /  -9.3 °C 1022.9 in /  34635.4 hPa Calm     91 % 0.0 in /  0 mm
22:41 17.2 °F /  -8.2 °C 14.8 °F /  -9.6 °C 1022.9 in /  34635.4 hPa West 1.9 mph /  3.1 km/h   86 % 0.0 in /  0 mm
22:46 17.2 °F /  -8.2 °C 14.8 °F /  -9.6 °C 1022.9 in /  34635.4 hPa West 3.7 mph /  6 km/h 3.7 mph /  6 km/h 86 % 0.0 in /  0 mm
22:50 16.7 °F /  -8.5 °C 15.2 °F /  -9.3 °C 1022.9 in /  34635.4 hPa Calm   4.8 mph /  7.7 km/h 91 % 0.0 in /  0 mm
22:51 17.3 °F /  -8.2 °C 14.9 °F /  -9.5 °C 1022.9 in /  34635.4 hPa West 3.7 mph /  6 km/h 3.7 mph /  6 km/h 86 % 0.0 in /  0 mm
22:56 17.3 °F /  -8.2 °C 14.9 °F /  -9.5 °C 1022.9 in /  34635.4 hPa West 3.7 mph /  6 km/h 3.7 mph /  6 km/h 86 % 0.0 in /  0 mm
23:00 16.7 °F /  -8.5 °C 15.2 °F /  -9.3 °C 1022.9 in /  34635.4 hPa Calm   3.2 mph /  5.1 km/h 91 % 0.0 in /  0 mm
23:01 17.3 °F /  -8.2 °C 14.9 °F /  -9.5 °C 1022.9 in /  34635.4 hPa West 1.9 mph /  3.1 km/h 2.3 mph /  3.7 km/h 86 % 0.0 in /  0 mm
23:06 17.3 °F /  -8.2 °C 15.1 °F /  -9.4 °C 1022.9 in /  34635.4 hPa Calm     87 % 0.0 in /  0 mm
23:10 16.5 °F /  -8.6 °C 15.0 °F /  -9.4 °C 1022.9 in /  34635.4 hPa Calm     91 % 0.0 in /  0 mm
23:11 17.3 °F /  -8.2 °C 15.1 °F /  -9.4 °C 1022.9 in /  34635.4 hPa Calm     87 % 0.0 in /  0 mm
23:16 17.3 °F /  -8.2 °C 15.1 °F /  -9.4 °C 1023.9 in /  34669.3 hPa Calm     87 % 0.0 in /  0 mm
23:20 16.4 °F /  -8.7 °C 14.9 °F /  -9.5 °C 1022.9 in /  34635.4 hPa Calm     91 % 0.0 in /  0 mm
23:21 17.3 °F /  -8.2 °C 15.1 °F /  -9.4 °C 1023.9 in /  34669.3 hPa Calm     87 % 0.0 in /  0 mm
23:26 17.3 °F /  -8.2 °C 15.1 °F /  -9.4 °C 1023.9 in /  34669.3 hPa Calm     87 % 0.0 in /  0 mm
23:30 16.3 °F /  -8.7 °C 14.8 °F /  -9.6 °C 1022.9 in /  34635.4 hPa Calm   1.6 mph /  2.6 km/h 91 % 0.0 in /  0 mm
23:31 17.2 °F /  -8.2 °C 15.0 °F /  -9.4 °C 1022.9 in /  34635.4 hPa Calm     87 % 0.0 in /  0 mm
23:36 17.1 °F /  -8.3 °C 14.9 °F /  -9.5 °C 1022.9 in /  34635.4 hPa Calm     87 % 0.0 in /  0 mm
23:40 16.4 °F /  -8.7 °C 15.1 °F /  -9.4 °C 1022.9 in /  34635.4 hPa Calm   1.6 mph /  2.6 km/h 92 % 0.0 in /  0 mm
23:41 17.1 °F /  -8.3 °C 14.9 °F /  -9.5 °C 1022.9 in /  34635.4 hPa Calm     87 % 0.0 in /  0 mm
23:46 17.1 °F /  -8.3 °C 14.9 °F /  -9.5 °C 1023.9 in /  34669.3 hPa Calm     87 % 0.0 in /  0 mm
23:50 16.3 °F /  -8.7 °C 15.0 °F /  -9.4 °C 1022.9 in /  34635.4 hPa Calm   1.6 mph /  2.6 km/h 92 % 0.0 in /  0 mm
23:51 17.0 °F /  -8.3 °C 14.8 °F /  -9.6 °C 1023.9 in /  34669.3 hPa Calm     87 % 0.0 in /  0 mm
23:56 17.0 °F /  -8.3 °C 14.8 °F /  -9.6 °C 1023.9 in /  34669.3 hPa Calm     87 % 0.0 in /  0 mm
Meteo Sesrovires
Elogis d' Weather Underground - 1.5 mb

Guio original per  Jim McMurry - jmcmurry@mwt.net Adaptat per a la plantilla per  Wim van der Kuil - Leuven-Template.eu

Trobareu la nostra informacio del temps tambe a:

Weather Underground

AWEKAS